• Join FlightAware (Why Join?)
  • Login
  • US Flag 
02:24PM EDT


 

Airport Tracker/Info


-or-


 

Live Flight TrackerFlight Track Log ✈ SWA1729 ✈ 21-Apr-2013 ✈ KBNA - KHOU

Flight Track Log - Related Links

Times and Time Zones

All times are in EDT time to prevent confusion due to time zone crossing. See the SWA1729 flight status page for this flight to view local times or setup timezone preferences in your user account.

Time Position Orientation Groundspeed Altitude Reporting Facility
EDT Latitude Longitude Course Direction KTS MPH feet Rate Location/Type
07:34PM 36.1333 -86.6833 352° North 155 178 1,200  Level Nashville TRACON
07:35PM 36.2067 -86.6967 352° North 200 230 4,500 2,640 Climbing Memphis Center
07:36PM 36.1864 -86.7878 255° West 223 257 7,700 3,060 Climbing Memphis Center
07:37PM 36.1700 -86.8733 257° West 255 293 10,700 2,280 Climbing Memphis Center
07:38PM 36.1481 -86.9872 257° West 317 365 12,300 2,220 Climbing Memphis Center
07:39PM 36.1222 -87.1067 255° West 360 414 15,200 2,700 Climbing Memphis Center
07:40PM 36.0964 -87.2361 256° West 381 438 17,700 2,400 Climbing Memphis Center
07:41PM 36.0683 -87.3681 255° West 387 445 20,000 2,100 Climbing Memphis Center
07:42PM 36.0406 -87.5128 257° West 398 458 21,900 1,800 Climbing Memphis Center
07:43PM 36.0122 -87.6497 256° West 403 464 23,700 1,740 Climbing Memphis Center
07:44PM 35.9839 -87.7919 256° West 413 475 25,400 1,800 Climbing Memphis Center
07:45PM 35.9556 -87.9336 256° West 418 481 27,400 2,040 Climbing Memphis Center
07:46PM 35.9267 -88.0653 255° West 418 481 29,500 1,740 Climbing Memphis Center
07:47PM 35.8892 -88.1767 247° West 412 474 30,900 1,440 Climbing Memphis Center
07:48PM 35.8075 -88.2733 224° Southwest 398 458 32,400 1,440 Climbing Memphis Center
07:49PM 35.7278 -88.3700 225° Southwest 403 464 33,800 960 Climbing Memphis Center
07:50PM 35.6478 -88.4664 224° Southwest 403 464 34,400 780 Climbing Memphis Center
07:51PM 35.5619 -88.5731 225° Southwest 408 470 35,400 780 Climbing Memphis Center
07:52PM 35.4797 -88.6692 224° Southwest 408 470 36,000 300 Climbing Memphis Center
07:53PM 35.4122 -88.7597 228° Southwest 403 464 36,000  Level Memphis Center
07:54PM 35.3278 -88.8581 224° Southwest 411 473 36,000  Level Memphis Center
07:55PM 35.2456 -88.9586 225° Southwest 417 480 36,000  Level Memphis Center
07:56PM 35.1550 -89.0644 224° Southwest 417 480 36,000  Level Memphis Center
07:57PM 35.0744 -89.1619 225° Southwest 412 474 36,000  Level Memphis Center
07:58PM 34.9961 -89.2569 225° Southwest 405 466 36,000  Level Memphis Center
07:59PM 34.9156 -89.3492 223° Southwest 400 460 36,000  Level Memphis Center
08:00PM 34.8350 -89.4436 224° Southwest 400 460 36,000  Level Memphis Center
08:01PM 34.7522 -89.5406 224° Southwest 406 467 36,000  Level Memphis Center
08:02PM 34.6756 -89.6272 223° Southwest 412 474 36,000  Level Memphis Center
08:03PM 34.5947 -89.7264 225° Southwest 412 474 36,000  Level Memphis Center
08:04PM 34.5139 -89.8228 225° Southwest 406 467 36,000  Level Memphis Center
08:05PM 34.4347 -89.9189 225° Southwest 406 467 36,000  Level Memphis Center
08:06PM 34.3456 -90.0250 225° Southwest 406 467 36,000  Level Memphis Center
08:07PM 34.2642 -90.1183 223° Southwest 401 461 36,000  Level Memphis Center
08:08PM 34.1831 -90.2117 224° Southwest 401 461 36,000  Level Memphis Center
08:09PM 34.1039 -90.3044 224° Southwest 401 461 36,000  Level Memphis Center
08:10PM 34.0225 -90.3947 223° Southwest 401 461 36,000  Level Memphis Center
08:11PM 33.9431 -90.4875 224° Southwest 401 461 36,000  Level Memphis Center
08:12PM 33.8636 -90.5772 223° Southwest 395 455 36,000  Level Memphis Center
08:13PM 33.7861 -90.6697 225° Southwest 395 455 36,000  Level Memphis Center
08:14PM 33.7067 -90.7592 223° Southwest 395 455 36,100  Climbing Memphis Center
08:15PM 33.6269 -90.8486 223° Southwest 395 455 36,000 -60 Descending Memphis Center
08:16PM 33.5472 -90.9381 223° Southwest 395 455 36,000  Level Memphis Center
08:17PM 33.4758 -91.0197 224° Southwest 395 455 36,100  Climbing Memphis Center
08:18PM 33.3983 -91.1086 224° Southwest 395 455 36,000 -60 Descending Memphis Center
08:19PM 33.3164 -91.2000 223° Southwest 395 455 36,000  Level Memphis Center
08:20PM 33.2406 -91.2886 224° Southwest 395 455 36,000  Level Memphis Center
08:21PM 33.1583 -91.3797 223° Southwest 395 455 36,000  Level Memphis Center
08:23PM 33.0272 -91.5244 223° Southwest 402 463 36,000  Level Fort Worth Center
08:24PM 32.9500 -91.6111 223° Southwest 397 457 36,000  Level Fort Worth Center
08:25PM 32.8706 -91.6978 223° Southwest 397 457 36,000  Level Fort Worth Center
08:26PM 32.7931 -91.7844 223° Southwest 397 457 36,000  Level Fort Worth Center
08:27PM 32.7258 -91.8725 228° Southwest 383 441 36,000  Level Fort Worth Center
08:29PM 32.5808 -92.0447 225° Southwest 378 435 36,000  Level Houston Center
08:30PM 32.5069 -92.1322 225° Southwest 378 435 36,000  Level Houston Center
08:31PM 32.4350 -92.2219 226° Southwest 375 432 36,000  Level Houston Center
08:32PM 32.3467 -92.3306 226° Southwest 380 437 36,000  Level Houston Center
08:33PM 32.2736 -92.4186 226° Southwest 378 435 36,000  Level Houston Center
08:34PM 32.1997 -92.5094 226° Southwest 380 437 36,000  Level Houston Center
08:35PM 32.1250 -92.5975 225° Southwest 381 438 36,000  Level Houston Center
08:36PM 32.0497 -92.6892 226° Southwest 387 445 36,000  Level Houston Center
08:37PM 31.9725 -92.7806 225° Southwest 392 451 36,000  Level Houston Center
08:38PM 31.8808 -92.8942 226° Southwest 400 460 36,000  Level Houston Center
08:39PM 31.8128 -92.9769 226° Southwest 397 457 36,000  Level Houston Center
08:40PM 31.7281 -93.0775 225° Southwest 397 457 36,000  Level Houston Center
08:41PM 31.6506 -93.1686 225° Southwest 396 456 36,000  Level Houston Center
08:42PM 31.5728 -93.2608 225° Southwest 397 457 36,000  Level Houston Center
08:43PM 31.4919 -93.3569 225° Southwest 387 445 36,000  Level Houston Center
08:44PM 31.4164 -93.4467 225° Southwest 388 447 36,000 -420 Level Houston Center
08:45PM 31.3400 -93.5358 225° Southwest 390 449 35,200 -1,020 Descending Houston Center
08:46PM 31.2531 -93.6361 225° Southwest 391 450 34,000 -1,080 Descending Houston Center
08:47PM 31.1761 -93.7269 225° Southwest 394 453 33,100 -960 Descending Houston Center
08:48PM 31.0975 -93.8181 225° Southwest 400 460 32,100 -960 Descending Houston Center
08:49PM 31.0150 -93.9147 225° Southwest 400 460 31,200 -960 Descending Houston Center
08:50PM 30.9397 -94.0031 225° Southwest 407 468 30,200 -1,020 Descending Houston Center
08:51PM 30.8433 -94.1150 225° Southwest 410 472 29,100 -960 Descending Houston Center
08:53PM 30.7714 -94.1983 225° Southwest 412 474 28,300 -1,440 Descending Houston Center
08:54PM 30.6806 -94.3044 225° Southwest 418 481 26,200 -2,400 Descending Houston Center
08:54PM 30.6347 -94.3581 225° Southwest 411 473 24,600 -2,460 Descending Houston Center
08:55PM 30.6019 -94.3933 223° Southwest 399 459 23,700 -2,160 Descending Houston Center
08:56PM 30.5272 -94.4783 224° Southwest 381 438 21,300 -2,400 Descending Houston Center
08:57PM 30.4572 -94.5761 230° Southwest 345 397 18,800 -2,460 Descending Houston Center
08:58PM 30.3983 -94.6669 233° Southwest 339 390 16,300 -2,340 Descending Houston Center
08:59PM 30.3422 -94.7533 233° Southwest 336 387 14,100 -2,220 Descending Houston Center
09:00PM 30.2892 -94.8375 234° Southwest 325 374 11,900 -1,560 Descending Houston Center
09:01PM 30.2367 -94.9194 233° Southwest 319 367 11,000 -480 Descending Houston Center
09:02PM 30.1839 -94.9994 233° Southwest 315 362 11,000 -420 Level Houston Center
09:03PM 30.1281 -95.0725 229° Southwest 306 352 10,200 -480 Descending Houston Center
09:04PM 30.0350 -95.1150 202° Southwest 285 328 10,000 -840 Descending Houston Center
09:05PM 29.9792 -95.1389 200° South 287 330 8,500 -1,020 Descending Houston Center
09:06PM 29.8956 -95.1747 200° South 274 315 8,000 -540 Descending Houston Center
09:07PM 29.8286 -95.2031 200° South 259 298 7,500 -960 Descending Houston Center
09:08PM 29.7456 -95.2325 197° South 279 321 6,100 -780 Descending Houston Center
09:09PM 29.6806 -95.2353 182° South 274 315 6,000 -60 Descending Houston Center
09:10PM 29.5908 -95.2392 182° South 265 305 6,000 -600 Level Houston Center
09:11PM 29.5347 -95.2678 204° Southwest 242 278 4,800 -1,380 Descending Houston Center
09:12PM 29.4881 -95.3206 225° Southwest 238 274 3,300 -1,380 Descending Houston Center
09:13PM 29.5206 -95.3639 311° West 234 269 2,000 -900 Descending Houston Center
09:14PM 29.5714 -95.3503 13° North 203 234 1,500 -540 Descending Houston Center
09:15PM 29.6039 -95.3258 33° Northeast 160 184 1,000 -600 Descending Houston Center
09:16PM 29.6317 -95.2944 44° Northeast 129 148 300 -480 Descending Houston Center
09:17PM 29.6553 -95.2681 44° Northeast 137 158 100 -240 Descending Houston Center